KMTN/MTN METAR and TAF weather

Enter ICAO airport designator
Station Type Date Time Source
KMTN METAR 2020/08/06 00:54 UTC NOAA

KMTN 060054Z 00000KT 10SM SKC 25/22 A3005


Station Type Date Time Source
KMTN Decoded METAR 2020/08/06 00:54 UTC NOAA

Baltimore / Martin, MD, United States (KMTN) 39-20N 076-25W
Aug 05, 2020 - 08:54 PM EDT / 2020.08.06 0054 UTC
Wind: Calm:0
Visibility: 10 mile(s):0
Sky conditions: clear
Temperature: 77 F (25 C)
Dew Point: 71 F (22 C)
Relative Humidity: 83%
Pressure (altimeter): 30.05 in. Hg (1017 hPa)
ob: KMTN 060054Z 00000KT 10SM SKC 25/22 A3005
cycle: 1

Station Type Date Time Source
KMTN TAF 2020/08/05 18:36 UTC NOAA

TAF KMTN 051733Z 0518/0618 20004KT P6SM SCT150
FM060500 VRB03KT P6SM BKN120
FM061300 03004KT P6SM -SHRA BKN050
FM061600 07006KT P6SM BKN020

Example: see airport list